createdAt,value
2023-05-21T00:02:00.350Z,14.15
2023-05-21T00:04:30.196Z,14.16
2023-05-21T00:07:00.424Z,14.16
2023-05-21T00:09:27.433Z,14.13
2023-05-21T00:11:54.475Z,14.10
2023-05-21T00:14:21.954Z,14.07
2023-05-21T00:16:49.523Z,14.05
2023-05-21T00:19:17.215Z,14.01
2023-05-21T00:21:46.056Z,13.98
2023-05-21T00:24:13.515Z,14.00
2023-05-21T00:26:40.855Z,14.02
2023-05-21T00:29:08.239Z,14.01
2023-05-21T00:31:35.535Z,14.00
2023-05-21T00:34:02.848Z,14.00
2023-05-21T00:36:31.894Z,14.03
2023-05-21T00:45:11.830Z,14.11
2023-05-21T00:47:39.481Z,14.11
2023-05-21T00:50:07.202Z,14.11
2023-05-21T00:52:42.166Z,14.06
2023-05-21T00:55:10.278Z,14.02
2023-05-21T00:57:37.483Z,14.00
2023-05-21T01:00:09.252Z,14.00
2023-05-21T01:02:37.546Z,13.99
2023-05-21T01:05:08.881Z,13.98
2023-05-21T01:07:36.945Z,13.96
2023-05-21T01:10:04.923Z,13.97
2023-05-21T01:12:32.787Z,13.96
2023-05-21T01:15:01.050Z,13.95
2023-05-21T01:17:29.023Z,13.93
2023-05-21T01:19:57.936Z,13.90
2023-05-21T01:22:25.396Z,13.86
2023-05-21T01:24:55.780Z,13.83
2023-05-21T01:27:23.246Z,13.78
2023-05-21T01:29:51.220Z,13.77
2023-05-21T01:32:28.117Z,13.74
2023-05-21T01:35:10.805Z,13.72
2023-05-21T01:37:45.976Z,13.70
2023-05-21T01:40:39.530Z,13.68
2023-05-21T01:43:07.101Z,13.68
2023-05-21T01:45:34.671Z,13.72
2023-05-21T01:48:02.057Z,13.74
2023-05-21T01:50:29.760Z,13.77
2023-05-21T01:53:01.403Z,13.77
2023-05-21T01:55:31.184Z,13.78
2023-05-21T01:58:01.972Z,13.77
2023-05-21T02:00:31.216Z,13.77
2023-05-21T02:02:58.985Z,13.76
2023-05-21T02:05:26.367Z,13.76
2023-05-21T02:07:55.106Z,13.79
2023-05-21T02:10:22.975Z,13.81
2023-05-21T02:12:50.350Z,13.79
2023-05-21T02:15:19.499Z,13.77
2023-05-21T02:17:47.114Z,13.72
2023-05-21T02:20:14.800Z,13.68
2023-05-21T02:22:43.916Z,13.61
2023-05-21T02:25:12.190Z,13.57
2023-05-21T02:27:40.033Z,13.50
2023-05-21T02:30:10.986Z,13.47
2023-05-21T02:32:39.957Z,13.44
2023-05-21T02:35:07.582Z,13.42
2023-05-21T02:37:35.163Z,13.41
2023-05-21T02:40:04.306Z,13.39
2023-05-21T02:42:31.989Z,13.38
2023-05-21T02:44:59.349Z,13.34
2023-05-21T02:47:26.672Z,13.32
2023-05-21T02:49:54.124Z,13.30
2023-05-21T02:52:24.305Z,13.27
2023-05-21T02:54:52.327Z,13.27
2023-05-21T02:57:19.686Z,13.27
2023-05-21T02:59:46.814Z,13.27
2023-05-21T03:02:14.045Z,13.26
2023-05-21T03:04:46.704Z,13.27
2023-05-21T03:07:15.258Z,13.26
2023-05-21T03:09:44.470Z,13.22
2023-05-21T03:12:11.793Z,13.18
2023-05-21T03:14:39.711Z,13.23
2023-05-21T03:17:08.030Z,13.38
2023-05-21T03:19:36.241Z,13.57
2023-05-21T03:22:04.810Z,13.57
2023-05-21T03:24:35.469Z,13.41
2023-05-21T03:27:03.408Z,13.28
2023-05-21T03:29:31.382Z,13.24
2023-05-21T03:31:58.968Z,13.24
2023-05-21T03:34:26.335Z,13.18
2023-05-21T03:36:53.921Z,13.18
2023-05-21T03:39:21.485Z,13.24
2023-05-21T03:41:49.189Z,13.28
2023-05-21T03:44:22.072Z,13.30
2023-05-21T03:46:53.511Z,13.35
2023-05-21T03:49:24.486Z,13.41
2023-05-21T03:51:52.514Z,13.49
2023-05-21T03:54:20.062Z,13.50
2023-05-21T03:56:47.727Z,13.55
2023-05-21T03:59:15.072Z,13.67
2023-05-21T04:01:43.084Z,13.74
2023-05-21T04:04:12.413Z,13.87
2023-05-21T04:06:42.546Z,13.98
2023-05-21T04:09:10.413Z,13.99
2023-05-21T04:11:37.764Z,14.03
2023-05-21T04:14:05.024Z,14.08
2023-05-21T04:16:35.108Z,14.12
2023-05-21T04:19:02.342Z,14.25
2023-05-21T04:21:29.984Z,14.33
2023-05-21T04:23:58.067Z,14.36
2023-05-21T04:34:29.229Z,14.78
2023-05-21T04:36:56.291Z,14.91
2023-05-21T04:39:24.952Z,15.02
2023-05-21T04:41:54.165Z,15.08
2023-05-21T04:44:20.839Z,15.16
2023-05-21T04:46:48.590Z,15.26
2023-05-21T04:49:15.155Z,15.38
2023-05-21T04:51:41.732Z,15.53
2023-05-21T04:54:08.299Z,15.69
2023-05-21T04:56:35.273Z,15.86
2023-05-21T04:59:05.298Z,15.99
2023-05-21T05:01:34.745Z,16.13
2023-05-21T05:04:01.354Z,16.30
2023-05-21T05:06:28.019Z,16.37
2023-05-21T05:08:56.682Z,16.46
2023-05-21T05:11:23.548Z,16.46
2023-05-21T05:13:50.788Z,16.55
2023-05-21T05:16:17.684Z,16.70
2023-05-21T05:18:45.960Z,16.83
2023-05-21T05:21:12.737Z,17.07
2023-05-21T05:23:39.249Z,17.41
2023-05-21T05:26:07.069Z,17.91
2023-05-21T05:28:34.034Z,18.53
2023-05-21T05:31:01.401Z,18.90
2023-05-21T05:33:28.485Z,19.32
2023-05-21T05:35:55.122Z,19.75
2023-05-21T05:38:22.588Z,20.11
2023-05-21T05:40:49.019Z,20.07
2023-05-21T05:43:15.821Z,20.17
2023-05-21T05:45:43.266Z,20.31
2023-05-21T05:48:16.802Z,20.36
2023-05-21T05:50:44.473Z,20.52
2023-05-21T05:53:12.856Z,20.76
2023-05-21T05:55:40.386Z,21.00
2023-05-21T05:58:07.173Z,21.06
2023-05-21T06:00:42.646Z,20.94
2023-05-21T06:03:09.301Z,20.96
2023-05-21T06:05:36.151Z,20.87
2023-05-21T06:08:02.930Z,20.73
2023-05-21T06:10:29.599Z,20.70
2023-05-21T06:12:56.212Z,20.48
2023-05-21T06:15:22.697Z,20.28
2023-05-21T06:17:49.150Z,20.28
2023-05-21T06:20:16.819Z,20.16
2023-05-21T06:22:44.001Z,19.86
2023-05-21T06:25:10.957Z,19.59
2023-05-21T06:27:38.428Z,19.37
2023-05-21T06:30:08.421Z,19.18
2023-05-21T06:32:37.129Z,19.02
2023-05-21T06:35:05.019Z,18.91
2023-05-21T06:37:32.018Z,18.89
2023-05-21T06:39:58.424Z,18.81
2023-05-21T06:42:25.463Z,18.66
2023-05-21T06:44:59.179Z,18.53
2023-05-21T06:47:29.732Z,18.47
2023-05-21T06:49:56.356Z,18.38
2023-05-21T06:52:23.821Z,18.41
2023-05-21T06:54:50.840Z,18.43
2023-05-21T06:57:18.429Z,18.45
2023-05-21T06:59:44.884Z,18.39
2023-05-21T07:02:11.354Z,18.30
2023-05-21T07:04:38.210Z,18.19
2023-05-21T07:07:05.226Z,18.05
2023-05-21T07:09:32.109Z,17.89
2023-05-21T07:11:59.085Z,17.77
2023-05-21T07:14:26.325Z,17.70
2023-05-21T07:16:53.514Z,17.73
2023-05-21T07:19:20.774Z,17.84
2023-05-21T07:21:48.778Z,17.92
2023-05-21T07:24:15.302Z,17.97
2023-05-21T07:26:42.498Z,17.99
2023-05-21T07:29:10.665Z,18.00
2023-05-21T07:31:38.329Z,18.01
2023-05-21T07:34:05.762Z,18.03
2023-05-21T07:36:33.444Z,18.04
2023-05-21T07:39:00.639Z,18.00
2023-05-21T07:41:28.305Z,17.91
2023-05-21T07:43:56.399Z,17.87
2023-05-21T07:46:23.233Z,17.86
2023-05-21T07:48:52.272Z,17.89
2023-05-21T07:51:18.807Z,17.94
2023-05-21T07:53:45.508Z,18.01
2023-05-21T07:56:13.389Z,18.01
2023-05-21T07:58:41.094Z,17.97
2023-05-21T08:01:07.771Z,17.96
2023-05-21T08:03:35.618Z,17.88
2023-05-21T08:06:03.310Z,17.77
2023-05-21T08:08:30.602Z,17.70
2023-05-21T08:10:57.502Z,17.54
2023-05-21T08:13:25.546Z,17.47
2023-05-21T08:15:53.373Z,17.47
2023-05-21T08:18:25.110Z,17.49
2023-05-21T08:20:53.833Z,17.53
2023-05-21T08:23:20.849Z,17.56
2023-05-21T08:25:50.750Z,17.57
2023-05-21T08:28:17.717Z,17.58
2023-05-21T08:30:44.148Z,17.60
2023-05-21T08:33:11.093Z,17.62
2023-05-21T08:35:38.796Z,17.61
2023-05-21T08:38:27.039Z,17.61
2023-05-21T08:40:58.519Z,17.67
2023-05-21T08:43:27.102Z,17.72
2023-05-21T08:45:54.801Z,17.77
2023-05-21T08:48:23.782Z,17.80
2023-05-21T08:50:51.936Z,17.84
2023-05-21T08:53:28.272Z,17.91
2023-05-21T08:55:56.829Z,17.95
2023-05-21T08:58:25.554Z,17.95
2023-05-21T09:00:54.252Z,17.91
2023-05-21T09:03:22.647Z,17.87
2023-05-21T09:05:49.253Z,17.85
2023-05-21T09:08:18.391Z,17.81
2023-05-21T09:10:52.099Z,17.75
2023-05-21T09:13:21.199Z,17.74
2023-05-21T09:15:48.655Z,17.68
2023-05-21T09:18:15.905Z,17.58
2023-05-21T09:20:49.284Z,17.52
2023-05-21T09:23:17.112Z,17.52
2023-05-21T09:25:48.276Z,17.55
2023-05-21T09:28:21.595Z,17.56
2023-05-21T09:30:51.789Z,17.56
2023-05-21T09:33:25.896Z,17.61
2023-05-21T09:35:52.941Z,17.64
2023-05-21T09:38:22.192Z,17.61
2023-05-21T09:40:48.899Z,17.58
2023-05-21T09:43:16.783Z,17.58
2023-05-21T09:45:54.047Z,17.57
2023-05-21T09:48:39.035Z,17.54
2023-05-21T09:51:08.071Z,17.53
2023-05-21T09:53:34.900Z,17.52
2023-05-21T09:56:01.558Z,17.50
2023-05-21T09:58:29.378Z,17.47
2023-05-21T10:00:56.373Z,17.41
2023-05-21T10:03:23.241Z,17.40
2023-05-21T10:05:51.125Z,17.37
2023-05-21T10:08:18.657Z,17.30
2023-05-21T10:10:45.315Z,17.26
2023-05-21T10:13:12.371Z,17.23
2023-05-21T10:15:50.145Z,17.21
2023-05-21T10:18:17.841Z,17.14
2023-05-21T10:20:44.344Z,17.11
2023-05-21T10:23:10.779Z,17.10
2023-05-21T10:25:37.488Z,17.14
2023-05-21T10:28:06.405Z,17.23
2023-05-21T10:30:34.115Z,17.33
2023-05-21T10:33:01.561Z,17.41
2023-05-21T10:35:28.175Z,17.48
2023-05-21T10:37:55.248Z,17.51
2023-05-21T10:40:21.754Z,17.57
2023-05-21T10:43:07.222Z,17.68
2023-05-21T10:46:10.199Z,17.79
2023-05-21T10:48:50.580Z,17.95
2023-05-21T10:51:21.968Z,18.09
2023-05-21T10:54:01.432Z,18.18
2023-05-21T10:57:01.199Z,18.25
2023-05-21T10:59:56.820Z,18.33
2023-05-21T11:02:26.175Z,18.40
2023-05-21T11:04:59.606Z,18.47
2023-05-21T11:07:55.786Z,18.55
2023-05-21T11:10:39.918Z,18.66
2023-05-21T11:13:13.395Z,18.76
2023-05-21T11:15:58.785Z,18.84
2023-05-21T11:18:34.606Z,18.89
2023-05-21T11:21:05.648Z,18.96
2023-05-21T11:24:39.331Z,18.86
2023-05-21T11:27:07.263Z,18.71
2023-05-21T11:29:42.450Z,18.60
2023-05-21T11:32:09.853Z,18.61
2023-05-21T11:34:42.117Z,18.61
2023-05-21T11:37:29.219Z,18.64
2023-05-21T11:39:58.253Z,18.64
2023-05-21T11:42:36.441Z,18.56
2023-05-21T11:45:04.376Z,18.43
2023-05-21T11:47:32.742Z,18.34
2023-05-21T11:50:01.470Z,18.33
2023-05-21T11:52:30.300Z,18.30
2023-05-21T11:54:58.376Z,18.33
2023-05-21T11:57:29.261Z,18.38
2023-05-21T11:59:58.651Z,18.37
2023-05-21T12:02:30.033Z,18.37
2023-05-21T12:05:00.810Z,18.37
2023-05-21T12:07:29.869Z,18.34
2023-05-21T12:09:57.317Z,18.32
2023-05-21T12:12:27.178Z,18.40
2023-05-21T12:14:56.493Z,18.48
2023-05-21T12:17:24.780Z,18.49
2023-05-21T12:19:53.759Z,18.52
2023-05-21T12:22:21.101Z,18.62
2023-05-21T12:24:51.260Z,18.66
2023-05-21T12:27:18.556Z,18.65
2023-05-21T12:29:46.871Z,18.64
2023-05-21T12:32:15.003Z,18.60
2023-05-21T12:34:50.073Z,18.59
2023-05-21T12:37:32.904Z,18.62
2023-05-21T12:40:01.368Z,18.65
2023-05-21T12:42:34.984Z,18.69
2023-05-21T12:45:06.639Z,18.75
2023-05-21T12:47:34.520Z,18.75
2023-05-21T12:50:02.482Z,18.78
2023-05-21T12:52:33.285Z,18.80
2023-05-21T12:55:01.278Z,18.83
2023-05-21T12:57:35.876Z,18.89
2023-05-21T13:07:40.015Z,18.86
2023-05-21T13:10:08.116Z,18.86
2023-05-21T13:12:37.209Z,18.86
2023-05-21T13:15:05.384Z,18.86
2023-05-21T13:17:33.098Z,18.88
2023-05-21T13:20:13.960Z,18.92
2023-05-21T13:22:49.146Z,18.98
2023-05-21T13:25:21.535Z,19.00
2023-05-21T13:27:49.794Z,18.97
2023-05-21T13:30:20.069Z,18.90
2023-05-21T13:32:48.065Z,18.84
2023-05-21T13:35:17.378Z,18.82
2023-05-21T13:37:45.407Z,18.82
2023-05-21T13:40:17.295Z,18.79
2023-05-21T13:42:45.807Z,18.80
2023-05-21T13:45:14.190Z,18.77
2023-05-21T13:47:45.498Z,18.74
2023-05-21T13:50:12.895Z,18.72
2023-05-21T13:52:40.357Z,18.68
2023-05-21T13:55:08.206Z,18.64
2023-05-21T13:57:35.614Z,18.56
2023-05-21T14:00:03.429Z,18.48
2023-05-21T14:02:35.645Z,18.40
2023-05-21T14:05:02.940Z,18.35
2023-05-21T14:07:31.157Z,18.33
2023-05-21T14:09:58.586Z,18.31
2023-05-21T14:12:26.879Z,18.28
2023-05-21T14:14:53.963Z,18.27
2023-05-21T14:17:21.339Z,18.25
2023-05-21T14:19:48.682Z,18.24
2023-05-21T14:22:16.389Z,18.21
2023-05-21T14:24:43.743Z,18.18
2023-05-21T14:27:12.592Z,18.21
2023-05-21T14:29:41.202Z,18.27
2023-05-21T14:32:08.598Z,18.31
2023-05-21T14:34:38.642Z,18.35
2023-05-21T14:44:47.860Z,18.58
2023-05-21T14:47:15.120Z,18.58
2023-05-21T14:49:42.358Z,18.63
2023-05-21T14:52:09.613Z,18.67
2023-05-21T14:54:37.683Z,18.71
2023-05-21T14:57:05.153Z,18.70
2023-05-21T14:59:32.522Z,18.69
2023-05-21T15:02:01.047Z,18.60
2023-05-21T15:04:28.576Z,18.50
2023-05-21T15:06:56.136Z,18.39
2023-05-21T15:09:23.465Z,18.35
2023-05-21T15:11:52.974Z,18.33
2023-05-21T15:14:20.939Z,18.38
2023-05-21T15:16:48.280Z,18.42
2023-05-21T15:19:15.889Z,18.44
2023-05-21T15:21:43.427Z,18.48
2023-05-21T15:24:11.600Z,18.54
2023-05-21T15:26:38.838Z,18.60
2023-05-21T15:29:06.928Z,18.64
2023-05-21T15:31:34.164Z,18.67
2023-05-21T15:34:01.318Z,18.71
2023-05-21T15:36:28.895Z,18.76
2023-05-21T15:38:56.210Z,18.80
2023-05-21T15:41:23.419Z,18.85
2023-05-21T15:43:51.292Z,18.88
2023-05-21T15:46:19.537Z,18.90
2023-05-21T15:48:46.777Z,18.95
2023-05-21T15:51:14.455Z,18.99
2023-05-21T15:53:42.556Z,19.03
2023-05-21T15:56:10.215Z,19.01
2023-05-21T15:58:38.050Z,18.93
2023-05-21T16:01:05.194Z,18.86
2023-05-21T16:03:32.982Z,18.85
2023-05-21T16:06:00.390Z,18.85
2023-05-21T16:08:27.676Z,18.86
2023-05-21T16:10:55.124Z,18.88
2023-05-21T16:13:22.172Z,18.83
2023-05-21T16:15:51.167Z,18.72
2023-05-21T16:18:18.719Z,18.58
2023-05-21T16:20:47.450Z,18.49
2023-05-21T16:23:14.833Z,18.39
2023-05-21T16:25:42.017Z,18.28
2023-05-21T16:28:09.962Z,18.18
2023-05-21T16:30:37.112Z,18.10
2023-05-21T16:33:04.413Z,18.09
2023-05-21T16:35:32.242Z,18.10
2023-05-21T16:37:59.991Z,18.11
2023-05-21T16:40:27.561Z,18.12
2023-05-21T16:42:54.836Z,18.15
2023-05-21T16:45:22.317Z,18.17
2023-05-21T16:47:50.723Z,18.18
2023-05-21T16:50:19.560Z,18.19
2023-05-21T16:52:46.816Z,18.20
2023-05-21T16:55:14.108Z,18.23
2023-05-21T16:57:41.384Z,18.24
2023-05-21T17:00:09.361Z,18.25
2023-05-21T17:02:37.119Z,18.28
2023-05-21T17:05:05.362Z,18.30
2023-05-21T17:07:32.920Z,18.29
2023-05-21T17:10:00.413Z,18.29
2023-05-21T17:12:27.874Z,18.30
2023-05-21T17:14:56.670Z,18.28
2023-05-21T17:17:24.193Z,18.29
2023-05-21T17:19:51.529Z,18.29
2023-05-21T17:22:19.587Z,18.30
2023-05-21T17:24:46.753Z,18.30
2023-05-21T17:27:15.081Z,18.28
2023-05-21T17:29:42.753Z,18.24
2023-05-21T17:32:10.315Z,18.22
2023-05-21T17:34:37.595Z,18.17
2023-05-21T17:37:04.991Z,18.15
2023-05-21T17:39:33.890Z,18.12
2023-05-21T23:41:54.366Z,15.08
2023-05-21T23:44:21.123Z,15.11
2023-05-21T23:46:48.239Z,15.13
2023-05-21T23:49:14.764Z,15.16
2023-05-21T23:51:41.360Z,15.13
2023-05-21T23:54:08.197Z,15.10
2023-05-21T23:56:34.781Z,15.03
2023-05-21T23:59:01.727Z,14.96
